sensor_id;sensor_type;location;lat;lon;timestamp;temperature;humidity
65396;HTU21D;52004;45.136;39.010;2022-10-22T00:02:19;8.16;69.51
65396;HTU21D;52004;45.136;39.010;2022-10-22T00:04:45;8.16;69.49
65396;HTU21D;52004;45.136;39.010;2022-10-22T00:07:12;8.17;69.50
65396;HTU21D;52004;45.136;39.010;2022-10-22T00:09:37;8.17;69.49
65396;HTU21D;52004;45.136;39.010;2022-10-22T00:12:04;8.17;69.51
65396;HTU21D;52004;45.136;39.010;2022-10-22T00:14:30;8.18;69.57
65396;HTU21D;52004;45.136;39.010;2022-10-22T00:16:55;8.18;69.61
65396;HTU21D;52004;45.136;39.010;2022-10-22T00:19:22;8.19;69.64
65396;HTU21D;52004;45.136;39.010;2022-10-22T00:21:47;8.19;69.61
65396;HTU21D;52004;45.136;39.010;2022-10-22T00:24:13;8.18;69.67
65396;HTU21D;52004;45.136;39.010;2022-10-22T00:26:40;8.17;69.72
65396;HTU21D;52004;45.136;39.010;2022-10-22T00:29:06;8.19;69.78
65396;HTU21D;52004;45.136;39.010;2022-10-22T00:31:31;8.18;69.78
65396;HTU21D;52004;45.136;39.010;2022-10-22T00:33:57;8.19;69.82
65396;HTU21D;52004;45.136;39.010;2022-10-22T00:36:23;8.20;69.85
65396;HTU21D;52004;45.136;39.010;2022-10-22T00:38:49;8.22;69.87
65396;HTU21D;52004;45.136;39.010;2022-10-22T00:41:15;8.24;69.88
65396;HTU21D;52004;45.136;39.010;2022-10-22T00:43:54;8.27;69.87
65396;HTU21D;52004;45.136;39.010;2022-10-22T00:46:21;8.27;69.84
65396;HTU21D;52004;45.136;39.010;2022-10-22T00:48:46;8.26;69.90
65396;HTU21D;52004;45.136;39.010;2022-10-22T00:51:12;8.27;69.90
65396;HTU21D;52004;45.136;39.010;2022-10-22T00:53:40;8.27;69.91
65396;HTU21D;52004;45.136;39.010;2022-10-22T00:56:07;8.26;69.92
65396;HTU21D;52004;45.136;39.010;2022-10-22T00:58:34;8.22;69.96
65396;HTU21D;52004;45.136;39.010;2022-10-22T01:01:01;8.21;70.00
65396;HTU21D;52004;45.136;39.010;2022-10-22T01:03:27;8.19;70.05
65396;HTU21D;52004;45.136;39.010;2022-10-22T01:05:55;8.18;70.04
65396;HTU21D;52004;45.136;39.010;2022-10-22T01:10:52;8.18;70.08
65396;HTU21D;52004;45.136;39.010;2022-10-22T01:13:30;8.19;70.04
65396;HTU21D;52004;45.136;39.010;2022-10-22T01:16:10;8.19;70.02
65396;HTU21D;52004;45.136;39.010;2022-10-22T01:26:42;8.17;69.97
65396;HTU21D;52004;45.136;39.010;2022-10-22T01:29:46;8.16;70.02
65396;HTU21D;52004;45.136;39.010;2022-10-22T01:32:07;8.15;70.03
65396;HTU21D;52004;45.136;39.010;2022-10-22T01:34:34;8.16;70.07
65396;HTU21D;52004;45.136;39.010;2022-10-22T01:37:01;8.17;70.10
65396;HTU21D;52004;45.136;39.010;2022-10-22T01:39:28;8.18;70.11
65396;HTU21D;52004;45.136;39.010;2022-10-22T01:41:55;8.20;70.08
65396;HTU21D;52004;45.136;39.010;2022-10-22T01:44:30;8.20;70.06
65396;HTU21D;52004;45.136;39.010;2022-10-22T01:47:06;8.17;70.10
65396;HTU21D;52004;45.136;39.010;2022-10-22T01:54:54;8.11;70.22
65396;HTU21D;52004;45.136;39.010;2022-10-22T01:57:32;8.07;70.21
65396;HTU21D;52004;45.136;39.010;2022-10-22T02:00:05;8.05;70.26
65396;HTU21D;52004;45.136;39.010;2022-10-22T02:07:35;8.06;70.31
65396;HTU21D;52004;45.136;39.010;2022-10-22T02:10:02;8.08;70.28
65396;HTU21D;52004;45.136;39.010;2022-10-22T02:12:28;8.11;70.24
65396;HTU21D;52004;45.136;39.010;2022-10-22T02:14:55;8.14;70.23
65396;HTU21D;52004;45.136;39.010;2022-10-22T02:17:22;8.16;70.23
65396;HTU21D;52004;45.136;39.010;2022-10-22T02:22:15;8.20;70.16
65396;HTU21D;52004;45.136;39.010;2022-10-22T02:24:41;8.18;70.16
65396;HTU21D;52004;45.136;39.010;2022-10-22T02:27:11;8.16;70.25
65396;HTU21D;52004;45.136;39.010;2022-10-22T02:30:00;8.16;70.35
65396;HTU21D;52004;45.136;39.010;2022-10-22T02:32:30;8.17;70.36
65396;HTU21D;52004;45.136;39.010;2022-10-22T02:34:56;8.17;70.32
65396;HTU21D;52004;45.136;39.010;2022-10-22T02:37:24;8.18;70.33
65396;HTU21D;52004;45.136;39.010;2022-10-22T02:39:50;8.18;70.35
65396;HTU21D;52004;45.136;39.010;2022-10-22T02:42:16;8.17;70.35
65396;HTU21D;52004;45.136;39.010;2022-10-22T02:44:42;8.15;70.36
65396;HTU21D;52004;45.136;39.010;2022-10-22T02:47:08;8.13;70.41
65396;HTU21D;52004;45.136;39.010;2022-10-22T02:49:34;8.12;70.48
65396;HTU21D;52004;45.136;39.010;2022-10-22T02:52:00;8.09;70.47
65396;HTU21D;52004;45.136;39.010;2022-10-22T02:54:26;8.09;70.51
65396;HTU21D;52004;45.136;39.010;2022-10-22T02:56:52;8.08;70.53
65396;HTU21D;52004;45.136;39.010;2022-10-22T02:59:18;8.08;70.53
65396;HTU21D;52004;45.136;39.010;2022-10-22T03:01:44;8.08;70.56
65396;HTU21D;52004;45.136;39.010;2022-10-22T03:04:10;8.09;70.58
65396;HTU21D;52004;45.136;39.010;2022-10-22T03:06:36;8.12;70.53
65396;HTU21D;52004;45.136;39.010;2022-10-22T03:09:02;8.09;70.55
65396;HTU21D;52004;45.136;39.010;2022-10-22T03:11:27;8.11;70.58
65396;HTU21D;52004;45.136;39.010;2022-10-22T03:13:53;8.12;70.60
65396;HTU21D;52004;45.136;39.010;2022-10-22T03:16:19;8.13;70.61
65396;HTU21D;52004;45.136;39.010;2022-10-22T03:18:45;8.15;70.55
65396;HTU21D;52004;45.136;39.010;2022-10-22T03:21:12;8.14;70.52
65396;HTU21D;52004;45.136;39.010;2022-10-22T03:23:44;8.14;70.57
65396;HTU21D;52004;45.136;39.010;2022-10-22T03:26:10;8.13;70.59
65396;HTU21D;52004;45.136;39.010;2022-10-22T03:28:37;8.12;70.56
65396;HTU21D;52004;45.136;39.010;2022-10-22T03:31:04;8.11;70.58
65396;HTU21D;52004;45.136;39.010;2022-10-22T03:33:30;8.08;70.61
65396;HTU21D;52004;45.136;39.010;2022-10-22T03:35:56;8.06;70.62
65396;HTU21D;52004;45.136;39.010;2022-10-22T03:38:22;8.05;70.63
65396;HTU21D;52004;45.136;39.010;2022-10-22T03:40:48;8.02;70.69
65396;HTU21D;52004;45.136;39.010;2022-10-22T03:43:14;8.00;70.70
65396;HTU21D;52004;45.136;39.010;2022-10-22T03:45:40;7.99;70.74
65396;HTU21D;52004;45.136;39.010;2022-10-22T03:48:06;7.99;70.80
65396;HTU21D;52004;45.136;39.010;2022-10-22T03:50:32;8.00;70.79
65396;HTU21D;52004;45.136;39.010;2022-10-22T03:52:58;8.02;70.78
65396;HTU21D;52004;45.136;39.010;2022-10-22T03:55:24;8.03;70.74
65396;HTU21D;52004;45.136;39.010;2022-10-22T03:57:50;8.03;70.71
65396;HTU21D;52004;45.136;39.010;2022-10-22T04:00:16;8.01;70.71
65396;HTU21D;52004;45.136;39.010;2022-10-22T04:02:42;7.99;70.75
65396;HTU21D;52004;45.136;39.010;2022-10-22T04:05:07;7.98;70.82
65396;HTU21D;52004;45.136;39.010;2022-10-22T04:07:33;7.99;70.82
65396;HTU21D;52004;45.136;39.010;2022-10-22T04:09:59;8.00;70.85
65396;HTU21D;52004;45.136;39.010;2022-10-22T04:12:25;8.00;70.81
65396;HTU21D;52004;45.136;39.010;2022-10-22T04:14:51;8.00;70.80
65396;HTU21D;52004;45.136;39.010;2022-10-22T04:17:17;8.00;70.81
65396;HTU21D;52004;45.136;39.010;2022-10-22T04:19:43;8.01;70.83
65396;HTU21D;52004;45.136;39.010;2022-10-22T04:22:09;8.03;70.84
65396;HTU21D;52004;45.136;39.010;2022-10-22T04:24:35;8.04;70.82
65396;HTU21D;52004;45.136;39.010;2022-10-22T04:27:00;8.05;70.83
65396;HTU21D;52004;45.136;39.010;2022-10-22T04:29:26;8.06;70.87
65396;HTU21D;52004;45.136;39.010;2022-10-22T04:31:52;8.11;70.87
65396;HTU21D;52004;45.136;39.010;2022-10-22T04:34:18;8.13;70.85
65396;HTU21D;52004;45.136;39.010;2022-10-22T04:36:44;8.15;70.88
65396;HTU21D;52004;45.136;39.010;2022-10-22T04:39:10;8.20;70.88
65396;HTU21D;52004;45.136;39.010;2022-10-22T04:41:36;8.24;70.87
65396;HTU21D;52004;45.136;39.010;2022-10-22T04:44:03;8.28;70.83
65396;HTU21D;52004;45.136;39.010;2022-10-22T04:46:30;8.33;70.84
65396;HTU21D;52004;45.136;39.010;2022-10-22T04:48:56;8.36;70.85
65396;HTU21D;52004;45.136;39.010;2022-10-22T04:51:22;8.41;70.85
65396;HTU21D;52004;45.136;39.010;2022-10-22T04:54:13;8.43;70.86
65396;HTU21D;52004;45.136;39.010;2022-10-22T04:56:39;8.47;70.90
65396;HTU21D;52004;45.136;39.010;2022-10-22T04:59:06;8.51;70.92
65396;HTU21D;52004;45.136;39.010;2022-10-22T05:01:36;8.57;70.87
65396;HTU21D;52004;45.136;39.010;2022-10-22T05:04:13;8.60;70.83
65396;HTU21D;52004;45.136;39.010;2022-10-22T05:06:39;8.63;70.79
65396;HTU21D;52004;45.136;39.010;2022-10-22T05:09:06;8.64;70.73
65396;HTU21D;52004;45.136;39.010;2022-10-22T05:11:33;8.66;70.65
65396;HTU21D;52004;45.136;39.010;2022-10-22T05:13:59;8.65;70.73
65396;HTU21D;52004;45.136;39.010;2022-10-22T05:16:28;8.66;70.74
65396;HTU21D;52004;45.136;39.010;2022-10-22T05:18:54;8.68;70.74
65396;HTU21D;52004;45.136;39.010;2022-10-22T05:21:20;8.67;70.68
65396;HTU21D;52004;45.136;39.010;2022-10-22T05:23:47;8.68;70.75
65396;HTU21D;52004;45.136;39.010;2022-10-22T05:26:14;8.72;70.69
65396;HTU21D;52004;45.136;39.010;2022-10-22T05:28:40;8.73;70.68
65396;HTU21D;52004;45.136;39.010;2022-10-22T05:31:07;8.74;70.69
65396;HTU21D;52004;45.136;39.010;2022-10-22T05:33:33;8.78;70.71
65396;HTU21D;52004;45.136;39.010;2022-10-22T05:35:59;8.82;70.72
65396;HTU21D;52004;45.136;39.010;2022-10-22T05:38:25;8.88;70.67
65396;HTU21D;52004;45.136;39.010;2022-10-22T05:43:26;8.97;70.60
65396;HTU21D;52004;45.136;39.010;2022-10-22T05:45:52;9.02;70.59
65396;HTU21D;52004;45.136;39.010;2022-10-22T05:48:18;9.05;70.58
65396;HTU21D;52004;45.136;39.010;2022-10-22T05:50:44;9.09;70.58
65396;HTU21D;52004;45.136;39.010;2022-10-22T05:53:16;9.11;70.56
65396;HTU21D;52004;45.136;39.010;2022-10-22T05:55:42;9.15;70.55
65396;HTU21D;52004;45.136;39.010;2022-10-22T05:58:08;9.19;70.45
65396;HTU21D;52004;45.136;39.010;2022-10-22T06:00:34;9.18;70.42
65396;HTU21D;52004;45.136;39.010;2022-10-22T06:03:00;9.20;70.53
65396;HTU21D;52004;45.136;39.010;2022-10-22T06:05:26;9.27;70.62
65396;HTU21D;52004;45.136;39.010;2022-10-22T06:07:52;9.35;70.64
65396;HTU21D;52004;45.136;39.010;2022-10-22T06:10:19;0.00;70.67
65396;HTU21D;52004;45.136;39.010;2022-10-22T06:12:46;9.52;70.61
65396;HTU21D;52004;45.136;39.010;2022-10-22T06:15:13;0.00;70.61
65396;HTU21D;52004;45.136;39.010;2022-10-22T06:17:39;9.69;70.55
65396;HTU21D;52004;45.136;39.010;2022-10-22T06:20:05;9.85;70.74
65396;HTU21D;52004;45.136;39.010;2022-10-22T06:22:31;9.99;70.76
65396;HTU21D;52004;45.136;39.010;2022-10-22T06:24:57;0.00;71.06
65396;HTU21D;52004;45.136;39.010;2022-10-22T06:27:23;10.40;71.52
65396;HTU21D;52004;45.136;39.010;2022-10-22T06:29:49;10.77;72.15
65396;HTU21D;52004;45.136;39.010;2022-10-22T06:32:15;11.14;72.46
65396;HTU21D;52004;45.136;39.010;2022-10-22T06:34:43;11.40;71.89
65396;HTU21D;52004;45.136;39.010;2022-10-22T06:37:10;11.58;71.42
65396;HTU21D;52004;45.136;39.010;2022-10-22T06:39:38;11.68;71.10
65396;HTU21D;52004;45.136;39.010;2022-10-22T06:42:04;11.84;71.46
65396;HTU21D;52004;45.136;39.010;2022-10-22T06:44:54;12.00;71.23
65396;HTU21D;52004;45.136;39.010;2022-10-22T06:47:20;12.10;71.06
65396;HTU21D;52004;45.136;39.010;2022-10-22T06:49:47;12.23;71.16
65396;HTU21D;52004;45.136;39.010;2022-10-22T06:52:13;12.44;71.71
65396;HTU21D;52004;45.136;39.010;2022-10-22T06:54:39;12.67;71.70
65396;HTU21D;52004;45.136;39.010;2022-10-22T06:57:05;13.07;72.90
65396;HTU21D;52004;45.136;39.010;2022-10-22T06:59:31;13.63;73.32
65396;HTU21D;52004;45.136;39.010;2022-10-22T07:01:57;14.13;73.45
65396;HTU21D;52004;45.136;39.010;2022-10-22T07:04:23;14.67;73.44
65396;HTU21D;52004;45.136;39.010;2022-10-22T07:06:48;15.17;73.63
65396;HTU21D;52004;45.136;39.010;2022-10-22T07:09:14;15.62;73.09
65396;HTU21D;52004;45.136;39.010;2022-10-22T07:11:41;16.01;72.99
65396;HTU21D;52004;45.136;39.010;2022-10-22T07:14:08;16.29;72.79
65396;HTU21D;52004;45.136;39.010;2022-10-22T07:16:34;16.66;72.83
65396;HTU21D;52004;45.136;39.010;2022-10-22T07:19:00;16.91;72.47
65396;HTU21D;52004;45.136;39.010;2022-10-22T07:21:26;17.15;72.19
65396;HTU21D;52004;45.136;39.010;2022-10-22T07:23:52;17.35;72.17
65396;HTU21D;52004;45.136;39.010;2022-10-22T07:26:19;17.54;71.80
65396;HTU21D;52004;45.136;39.010;2022-10-22T07:28:45;17.75;71.85
65396;HTU21D;52004;45.136;39.010;2022-10-22T07:31:12;17.99;71.66
65396;HTU21D;52004;45.136;39.010;2022-10-22T07:33:38;18.29;71.55
65396;HTU21D;52004;45.136;39.010;2022-10-22T07:36:05;18.56;71.39
65396;HTU21D;52004;45.136;39.010;2022-10-22T07:38:32;18.69;70.77
65396;HTU21D;52004;45.136;39.010;2022-10-22T07:40:57;18.68;70.57
65396;HTU21D;52004;45.136;39.010;2022-10-22T07:43:23;18.68;70.39
65396;HTU21D;52004;45.136;39.010;2022-10-22T07:45:49;18.65;70.28
65396;HTU21D;52004;45.136;39.010;2022-10-22T07:48:15;18.78;70.34
65396;HTU21D;52004;45.136;39.010;2022-10-22T07:50:41;18.94;70.29
65396;HTU21D;52004;45.136;39.010;2022-10-22T07:53:07;19.17;70.06
65396;HTU21D;52004;45.136;39.010;2022-10-22T07:55:33;0.00;69.58
65396;HTU21D;52004;45.136;39.010;2022-10-22T07:57:59;19.26;68.35
65396;HTU21D;52004;45.136;39.010;2022-10-22T08:00:25;18.89;67.33
65396;HTU21D;52004;45.136;39.010;2022-10-22T08:02:51;18.57;67.92
65396;HTU21D;52004;45.136;39.010;2022-10-22T08:05:17;18.62;68.83
65396;HTU21D;52004;45.136;39.010;2022-10-22T08:07:43;18.89;69.49
65396;HTU21D;52004;45.136;39.010;2022-10-22T08:10:09;19.24;69.46
65396;HTU21D;52004;45.136;39.010;2022-10-22T08:12:36;19.51;68.76
65396;HTU21D;52004;45.136;39.010;2022-10-22T08:15:02;19.39;67.04
65396;HTU21D;52004;45.136;39.010;2022-10-22T08:17:28;19.03;66.78
65396;HTU21D;52004;45.136;39.010;2022-10-22T08:19:54;18.99;67.79
65396;HTU21D;52004;45.136;39.010;2022-10-22T08:22:20;19.20;68.42
65396;HTU21D;52004;45.136;39.010;2022-10-22T08:24:46;19.51;68.53
65396;HTU21D;52004;45.136;39.010;2022-10-22T08:27:12;19.77;68.66
65396;HTU21D;52004;45.136;39.010;2022-10-22T08:29:38;20.07;68.54
65396;HTU21D;52004;45.136;39.010;2022-10-22T08:32:05;20.21;67.82
65396;HTU21D;52004;45.136;39.010;2022-10-22T08:34:31;20.22;67.74
65396;HTU21D;52004;45.136;39.010;2022-10-22T08:36:56;20.28;67.81
65396;HTU21D;52004;45.136;39.010;2022-10-22T08:39:23;20.35;67.81
65396;HTU21D;52004;45.136;39.010;2022-10-22T08:44:27;20.43;67.60
65396;HTU21D;52004;45.136;39.010;2022-10-22T08:49:26;20.78;67.61
65396;HTU21D;52004;45.136;39.010;2022-10-22T08:51:54;20.78;67.09
65396;HTU21D;52004;45.136;39.010;2022-10-22T08:57:33;20.75;67.36
65396;HTU21D;52004;45.136;39.010;2022-10-22T08:59:45;20.99;67.16
65396;HTU21D;52004;45.136;39.010;2022-10-22T09:02:14;20.95;67.01
65396;HTU21D;52004;45.136;39.010;2022-10-22T09:04:45;21.05;67.05
65396;HTU21D;52004;45.136;39.010;2022-10-22T09:07:13;21.17;66.44
65396;HTU21D;52004;45.136;39.010;2022-10-22T09:09:41;21.22;66.25
65396;HTU21D;52004;45.136;39.010;2022-10-22T09:12:13;21.44;66.73
65396;HTU21D;52004;45.136;39.010;2022-10-22T09:14:40;21.69;66.84
65396;HTU21D;52004;45.136;39.010;2022-10-22T09:19:49;22.24;66.69
65396;HTU21D;52004;45.136;39.010;2022-10-22T09:25:22;22.81;66.56
65396;HTU21D;52004;45.136;39.010;2022-10-22T09:27:48;23.08;66.65
65396;HTU21D;52004;45.136;39.010;2022-10-22T09:30:19;0.00;66.67
65396;HTU21D;52004;45.136;39.010;2022-10-22T09:32:45;23.49;66.59
65396;HTU21D;52004;45.136;39.010;2022-10-22T09:35:12;23.64;66.49
65396;HTU21D;52004;45.136;39.010;2022-10-22T09:37:48;23.40;65.91
65396;HTU21D;52004;45.136;39.010;2022-10-22T09:40:15;23.29;66.18
65396;HTU21D;52004;45.136;39.010;2022-10-22T09:42:42;23.28;65.94
65396;HTU21D;52004;45.136;39.010;2022-10-22T09:45:18;23.00;65.89
65396;HTU21D;52004;45.136;39.010;2022-10-22T09:47:45;23.02;66.24
65396;HTU21D;52004;45.136;39.010;2022-10-22T09:53:00;23.42;65.95
65396;HTU21D;52004;45.136;39.010;2022-10-22T09:55:26;23.60;65.87
65396;HTU21D;52004;45.136;39.010;2022-10-22T09:57:57;23.77;65.76
65396;HTU21D;52004;45.136;39.010;2022-10-22T10:00:23;23.92;65.51
65396;HTU21D;52004;45.136;39.010;2022-10-22T10:02:53;23.99;65.37
65396;HTU21D;52004;45.136;39.010;2022-10-22T10:05:23;24.12;65.43
65396;HTU21D;52004;45.136;39.010;2022-10-22T10:07:49;24.17;65.12
65396;HTU21D;52004;45.136;39.010;2022-10-22T10:10:27;24.28;65.20
65396;HTU21D;52004;45.136;39.010;2022-10-22T10:12:58;24.38;65.07
65396;HTU21D;52004;45.136;39.010;2022-10-22T10:15:34;24.31;64.65
65396;HTU21D;52004;45.136;39.010;2022-10-22T10:23:13;23.41;64.22
65396;HTU21D;52004;45.136;39.010;2022-10-22T10:25:51;23.36;64.20
65396;HTU21D;52004;45.136;39.010;2022-10-22T10:28:39;0.00;63.89
65396;HTU21D;52004;45.136;39.010;2022-10-22T10:36:29;23.37;63.47
65396;HTU21D;52004;45.136;39.010;2022-10-22T10:38:59;23.59;63.17
65396;HTU21D;52004;45.136;39.010;2022-10-22T10:42:11;23.83;62.58
65396;HTU21D;52004;45.136;39.010;2022-10-22T10:44:29;23.84;61.35
65396;HTU21D;52004;45.136;39.010;2022-10-22T10:49:30;23.71;60.65
65396;HTU21D;52004;45.136;39.010;2022-10-22T10:52:18;23.77;60.54
65396;HTU21D;52004;45.136;39.010;2022-10-22T10:57:47;23.87;59.84
65396;HTU21D;52004;45.136;39.010;2022-10-22T11:00:17;23.89;59.38
65396;HTU21D;52004;45.136;39.010;2022-10-22T11:05:18;23.84;58.66
65396;HTU21D;52004;45.136;39.010;2022-10-22T11:07:53;23.79;58.26
65396;HTU21D;52004;45.136;39.010;2022-10-22T11:10:27;23.74;57.88
65396;HTU21D;52004;45.136;39.010;2022-10-22T11:12:56;23.64;57.57
65396;HTU21D;52004;45.136;39.010;2022-10-22T11:15:33;23.54;57.35
65396;HTU21D;52004;45.136;39.010;2022-10-22T11:18:02;23.45;57.04
65396;HTU21D;52004;45.136;39.010;2022-10-22T11:23:05;23.28;56.75
65396;HTU21D;52004;45.136;39.010;2022-10-22T11:25:37;23.18;56.43
65396;HTU21D;52004;45.136;39.010;2022-10-22T11:28:06;22.99;56.07
65396;HTU21D;52004;45.136;39.010;2022-10-22T11:30:34;22.84;56.26
65396;HTU21D;52004;45.136;39.010;2022-10-22T11:33:04;22.82;56.30
65396;HTU21D;52004;45.136;39.010;2022-10-22T11:35:33;22.78;56.02
65396;HTU21D;52004;45.136;39.010;2022-10-22T11:37:59;22.70;55.87
65396;HTU21D;52004;45.136;39.010;2022-10-22T11:40:34;22.63;55.99
65396;HTU21D;52004;45.136;39.010;2022-10-22T11:43:04;22.63;56.08
65396;HTU21D;52004;45.136;39.010;2022-10-22T11:45:33;22.62;56.00
65396;HTU21D;52004;45.136;39.010;2022-10-22T11:50:54;22.47;55.96
65396;HTU21D;52004;45.136;39.010;2022-10-22T11:55:51;22.28;56.48
65396;HTU21D;52004;45.136;39.010;2022-10-22T12:13:52;22.25;57.08
65396;HTU21D;52004;45.136;39.010;2022-10-22T12:16:24;22.16;57.01
65396;HTU21D;52004;45.136;39.010;2022-10-22T12:18:54;22.13;57.19
65396;HTU21D;52004;45.136;39.010;2022-10-22T12:21:21;22.22;57.30
65396;HTU21D;52004;45.136;39.010;2022-10-22T12:23:47;22.29;57.23
65396;HTU21D;52004;45.136;39.010;2022-10-22T12:26:24;22.37;57.07
65396;HTU21D;52004;45.136;39.010;2022-10-22T12:28:55;22.37;56.90
65396;HTU21D;52004;45.136;39.010;2022-10-22T12:31:21;22.36;56.78
65396;HTU21D;52004;45.136;39.010;2022-10-22T12:33:47;22.31;56.65
65396;HTU21D;52004;45.136;39.010;2022-10-22T12:36:17;22.23;56.59
65396;HTU21D;52004;45.136;39.010;2022-10-22T12:38:46;22.22;56.58
65396;HTU21D;52004;45.136;39.010;2022-10-22T12:41:12;22.26;56.45
65396;HTU21D;52004;45.136;39.010;2022-10-22T12:43:38;22.28;56.26
65396;HTU21D;52004;45.136;39.010;2022-10-22T12:46:04;22.31;56.07
65396;HTU21D;52004;45.136;39.010;2022-10-22T12:48:39;22.32;55.95
65396;HTU21D;52004;45.136;39.010;2022-10-22T12:51:06;22.31;55.79
65396;HTU21D;52004;45.136;39.010;2022-10-22T12:53:33;22.27;55.78
65396;HTU21D;52004;45.136;39.010;2022-10-22T12:56:06;22.24;55.67
65396;HTU21D;52004;45.136;39.010;2022-10-22T12:58:33;22.21;55.66
65396;HTU21D;52004;45.136;39.010;2022-10-22T13:01:01;22.14;55.69
65396;HTU21D;52004;45.136;39.010;2022-10-22T13:03:35;22.11;55.58
65396;HTU21D;52004;45.136;39.010;2022-10-22T13:08:44;21.89;55.58
65396;HTU21D;52004;45.136;39.010;2022-10-22T13:11:10;21.76;55.66
65396;HTU21D;52004;45.136;39.010;2022-10-22T13:13:40;21.61;55.81
65396;HTU21D;52004;45.136;39.010;2022-10-22T13:16:20;21.49;55.90
65396;HTU21D;52004;45.136;39.010;2022-10-22T13:18:47;21.35;55.88
65396;HTU21D;52004;45.136;39.010;2022-10-22T13:21:27;21.23;55.81
65396;HTU21D;52004;45.136;39.010;2022-10-22T13:24:47;21.02;55.77
65396;HTU21D;52004;45.136;39.010;2022-10-22T13:26:42;20.74;55.76
65396;HTU21D;52004;45.136;39.010;2022-10-22T13:29:14;0.00;55.81
65396;HTU21D;52004;45.136;39.010;2022-10-22T13:31:45;20.24;55.87
65396;HTU21D;52004;45.136;39.010;2022-10-22T13:34:13;19.98;55.96
65396;HTU21D;52004;45.136;39.010;2022-10-22T13:36:40;0.00;56.03
65396;HTU21D;52004;45.136;39.010;2022-10-22T13:39:06;19.46;56.14
65396;HTU21D;52004;45.136;39.010;2022-10-22T13:41:36;0.00;56.22
65396;HTU21D;52004;45.136;39.010;2022-10-22T13:44:27;18.98;56.32
65396;HTU21D;52004;45.136;39.010;2022-10-22T13:46:53;18.78;56.36
65396;HTU21D;52004;45.136;39.010;2022-10-22T13:49:20;18.62;56.40
65396;HTU21D;52004;45.136;39.010;2022-10-22T13:51:49;18.42;56.44
65396;HTU21D;52004;45.136;39.010;2022-10-22T13:54:20;18.25;56.52
65396;HTU21D;52004;45.136;39.010;2022-10-22T13:56:47;18.07;56.58
65396;HTU21D;52004;45.136;39.010;2022-10-22T13:59:13;17.90;56.67
65396;HTU21D;52004;45.136;39.010;2022-10-22T14:01:39;17.74;56.74
65396;HTU21D;52004;45.136;39.010;2022-10-22T14:04:05;17.55;56.84
65396;HTU21D;52004;45.136;39.010;2022-10-22T14:06:32;17.40;56.94
65396;HTU21D;52004;45.136;39.010;2022-10-22T14:09:00;17.28;57.04
65396;HTU21D;52004;45.136;39.010;2022-10-22T14:11:26;17.13;57.14
65396;HTU21D;52004;45.136;39.010;2022-10-22T14:13:52;17.00;57.21
65396;HTU21D;52004;45.136;39.010;2022-10-22T14:16:19;16.87;57.24
65396;HTU21D;52004;45.136;39.010;2022-10-22T14:18:45;16.74;57.32
65396;HTU21D;52004;45.136;39.010;2022-10-22T14:21:12;16.62;57.38
65396;HTU21D;52004;45.136;39.010;2022-10-22T14:23:39;16.52;57.41
65396;HTU21D;52004;45.136;39.010;2022-10-22T14:26:05;16.41;57.45
65396;HTU21D;52004;45.136;39.010;2022-10-22T14:28:33;16.30;57.52
65396;HTU21D;52004;45.136;39.010;2022-10-22T14:30:59;16.18;57.59
65396;HTU21D;52004;45.136;39.010;2022-10-22T14:33:29;16.05;57.64
65396;HTU21D;52004;45.136;39.010;2022-10-22T14:35:55;0.00;57.68
65396;HTU21D;52004;45.136;39.010;2022-10-22T14:38:21;15.84;57.74
65396;HTU21D;52004;45.136;39.010;2022-10-22T14:40:47;15.72;57.81
65396;HTU21D;52004;45.136;39.010;2022-10-22T14:43:22;15.62;57.89
65396;HTU21D;52004;45.136;39.010;2022-10-22T14:45:48;15.52;57.95
65396;HTU21D;52004;45.136;39.010;2022-10-22T14:48:14;15.44;58.03
65396;HTU21D;52004;45.136;39.010;2022-10-22T14:50:41;15.33;58.10
65396;HTU21D;52004;45.136;39.010;2022-10-22T14:53:07;15.24;58.19
65396;HTU21D;52004;45.136;39.010;2022-10-22T14:55:32;15.15;58.22
65396;HTU21D;52004;45.136;39.010;2022-10-22T14:57:58;15.07;58.31
65396;HTU21D;52004;45.136;39.010;2022-10-22T15:00:24;15.00;58.32
65396;HTU21D;52004;45.136;39.010;2022-10-22T15:02:50;14.94;58.36
65396;HTU21D;52004;45.136;39.010;2022-10-22T15:05:16;14.85;58.41
65396;HTU21D;52004;45.136;39.010;2022-10-22T15:07:43;14.79;58.46
65396;HTU21D;52004;45.136;39.010;2022-10-22T15:10:09;14.69;58.51
65396;HTU21D;52004;45.136;39.010;2022-10-22T15:12:35;14.64;58.58
65396;HTU21D;52004;45.136;39.010;2022-10-22T15:15:01;14.58;58.64
65396;HTU21D;52004;45.136;39.010;2022-10-22T15:17:27;14.54;58.67
65396;HTU21D;52004;45.136;39.010;2022-10-22T15:19:53;14.49;58.69
65396;HTU21D;52004;45.136;39.010;2022-10-22T15:22:20;14.41;58.72
65396;HTU21D;52004;45.136;39.010;2022-10-22T15:24:46;0.00;58.75
65396;HTU21D;52004;45.136;39.010;2022-10-22T15:27:14;14.28;58.80
65396;HTU21D;52004;45.136;39.010;2022-10-22T15:29:40;0.00;58.85
65396;HTU21D;52004;45.136;39.010;2022-10-22T15:32:07;14.14;58.90
65396;HTU21D;52004;45.136;39.010;2022-10-22T15:34:37;14.06;58.96
65396;HTU21D;52004;45.136;39.010;2022-10-22T15:37:04;0.00;59.02
65396;HTU21D;52004;45.136;39.010;2022-10-22T15:39:30;0.00;59.09
65396;HTU21D;52004;45.136;39.010;2022-10-22T15:41:56;13.84;59.12
65396;HTU21D;52004;45.136;39.010;2022-10-22T15:44:27;13.78;59.16
65396;HTU21D;52004;45.136;39.010;2022-10-22T15:46:54;13.70;59.21
65396;HTU21D;52004;45.136;39.010;2022-10-22T15:49:20;13.63;59.26
65396;HTU21D;52004;45.136;39.010;2022-10-22T15:51:47;13.53;59.30
65396;HTU21D;52004;45.136;39.010;2022-10-22T15:54:14;13.47;59.38
65396;HTU21D;52004;45.136;39.010;2022-10-22T15:56:40;13.38;59.42
65396;HTU21D;52004;45.136;39.010;2022-10-22T15:59:08;13.32;59.48
65396;HTU21D;52004;45.136;39.010;2022-10-22T16:01:35;13.23;59.51
65396;HTU21D;52004;45.136;39.010;2022-10-22T16:04:02;13.17;59.54
65396;HTU21D;52004;45.136;39.010;2022-10-22T16:06:35;13.09;59.57
65396;HTU21D;52004;45.136;39.010;2022-10-22T16:09:03;13.04;59.60
65396;HTU21D;52004;45.136;39.010;2022-10-22T16:11:54;12.95;59.67
65396;HTU21D;52004;45.136;39.010;2022-10-22T16:14:21;0.00;59.76
65396;HTU21D;52004;45.136;39.010;2022-10-22T16:16:49;0.00;59.80
65396;HTU21D;52004;45.136;39.010;2022-10-22T16:19:16;12.77;59.86
65396;HTU21D;52004;45.136;39.010;2022-10-22T16:21:42;0.00;59.88
65396;HTU21D;52004;45.136;39.010;2022-10-22T16:24:09;12.69;59.93
65396;HTU21D;52004;45.136;39.010;2022-10-22T16:26:35;12.63;59.99
65396;HTU21D;52004;45.136;39.010;2022-10-22T16:29:01;12.59;60.06
65396;HTU21D;52004;45.136;39.010;2022-10-22T16:31:27;12.56;60.05
65396;HTU21D;52004;45.136;39.010;2022-10-22T16:33:53;0.00;60.06
65396;HTU21D;52004;45.136;39.010;2022-10-22T16:36:20;12.49;60.08
65396;HTU21D;52004;45.136;39.010;2022-10-22T16:38:46;12.46;60.09
65396;HTU21D;52004;45.136;39.010;2022-10-22T16:41:13;12.43;60.14